createdAt,value
2022-11-22T00:00:46.973Z,8.39
2022-11-22T00:03:14.893Z,8.37
2022-11-22T00:05:42.861Z,8.29
2022-11-22T00:08:10.807Z,8.25
2022-11-22T00:10:40.168Z,8.17
2022-11-22T00:13:08.153Z,8.12
2022-11-22T00:15:36.141Z,8.16
2022-11-22T00:18:04.099Z,8.19
2022-11-22T00:20:32.098Z,8.19
2022-11-22T00:23:00.013Z,8.30
2022-11-22T00:25:28.030Z,8.30
2022-11-22T00:27:57.443Z,8.35
2022-11-22T00:30:25.429Z,8.40
2022-11-22T00:32:53.363Z,8.42
2022-11-22T00:35:21.352Z,8.46
2022-11-22T00:37:49.312Z,8.39
2022-11-22T00:40:17.391Z,8.49
2022-11-22T00:42:45.361Z,8.57
2022-11-22T00:45:14.754Z,8.57
2022-11-22T00:47:42.734Z,8.65
2022-11-22T00:50:10.999Z,8.60
2022-11-22T00:52:38.972Z,8.49
2022-11-22T00:55:07.915Z,8.53
2022-11-22T00:57:35.903Z,8.58
2022-11-22T01:00:03.933Z,8.65
2022-11-22T01:02:33.261Z,8.60
2022-11-22T01:05:01.223Z,8.48
2022-11-22T01:07:29.189Z,8.41
2022-11-22T01:09:57.161Z,8.48
2022-11-22T01:12:25.095Z,8.44
2022-11-22T01:14:53.097Z,8.42
2022-11-22T01:17:21.216Z,8.31
2022-11-22T01:19:50.563Z,8.26
2022-11-22T01:22:18.520Z,8.15
2022-11-22T01:24:46.486Z,8.07
2022-11-22T01:27:14.441Z,8.08
2022-11-22T01:29:42.354Z,7.93
2022-11-22T01:32:10.299Z,7.88
2022-11-22T01:34:38.329Z,7.82
2022-11-22T01:37:07.636Z,7.74
2022-11-22T01:39:35.590Z,7.67
2022-11-22T01:42:03.579Z,7.54
2022-11-22T01:44:32.380Z,7.43
2022-11-22T01:47:01.389Z,7.28
2022-11-22T01:49:31.367Z,7.24
2022-11-22T01:52:00.969Z,7.11
2022-11-22T01:54:32.180Z,7.02
2022-11-22T01:57:01.137Z,6.95
2022-11-22T01:59:30.527Z,6.91
2022-11-22T02:01:58.771Z,6.79
2022-11-22T02:04:26.759Z,6.69
2022-11-22T02:06:57.403Z,6.60
2022-11-22T02:09:25.357Z,6.53
2022-11-22T02:11:55.560Z,6.39
2022-11-22T02:14:25.517Z,6.34
2022-11-22T02:16:53.454Z,6.24
2022-11-22T02:19:24.876Z,6.17
2022-11-22T02:21:55.840Z,6.08
2022-11-22T02:24:25.568Z,6.01
2022-11-22T02:26:54.946Z,5.93
2022-11-22T02:29:22.869Z,5.88
2022-11-22T02:31:50.919Z,5.83
2022-11-22T02:34:18.859Z,5.75
2022-11-22T02:36:48.163Z,5.76
2022-11-22T02:39:17.426Z,5.79
2022-11-22T02:41:45.469Z,5.82
2022-11-22T02:44:14.793Z,5.76
2022-11-22T02:46:49.863Z,5.72
2022-11-22T02:49:19.473Z,5.67
2022-11-22T02:51:47.627Z,5.63
2022-11-22T02:54:15.539Z,5.59
2022-11-22T02:56:43.498Z,5.60
2022-11-22T02:59:11.634Z,5.52
2022-11-22T03:01:40.991Z,5.46
2022-11-22T03:04:08.943Z,5.42
2022-11-22T03:06:36.869Z,5.39
2022-11-22T03:09:04.859Z,5.31
2022-11-22T03:11:32.854Z,5.30
2022-11-22T03:14:00.759Z,5.23
2022-11-22T03:16:30.584Z,4.95
2022-11-22T03:18:59.942Z,5.08
2022-11-22T03:21:27.968Z,5.02
2022-11-22T03:23:56.104Z,4.97
2022-11-22T03:26:24.655Z,4.91
2022-11-22T03:28:52.671Z,4.85
2022-11-22T03:31:20.788Z,4.83
2022-11-22T03:33:48.743Z,4.78
2022-11-22T03:36:18.093Z,4.64
2022-11-22T03:38:46.085Z,4.68
2022-11-22T03:41:14.117Z,4.64
2022-11-22T03:43:42.066Z,4.61
2022-11-22T03:46:15.457Z,4.58
2022-11-22T03:48:43.596Z,4.58
2022-11-22T03:51:11.593Z,4.55
2022-11-22T03:53:40.921Z,4.49
2022-11-22T03:56:08.849Z,4.46
2022-11-22T03:58:36.893Z,4.43
2022-11-22T04:01:04.919Z,4.31
2022-11-22T04:03:32.941Z,4.32
2022-11-22T04:06:00.869Z,4.28
2022-11-22T04:08:28.866Z,4.10
2022-11-22T04:10:58.327Z,4.06
2022-11-22T04:13:46.327Z,3.95
2022-11-22T04:16:13.289Z,3.84
2022-11-22T04:18:41.206Z,3.80
2022-11-22T04:21:26.670Z,3.79
2022-11-22T04:24:08.467Z,3.72
2022-11-22T04:26:37.792Z,3.74
2022-11-22T04:29:10.122Z,3.71
2022-11-22T04:31:55.802Z,3.73
2022-11-22T04:34:23.853Z,3.72
2022-11-22T04:36:51.882Z,3.68
2022-11-22T04:39:19.865Z,3.67
2022-11-22T04:42:09.198Z,3.70
2022-11-22T04:44:42.014Z,3.71
2022-11-22T04:47:10.073Z,3.71
2022-11-22T04:49:38.069Z,3.73
2022-11-22T04:52:24.021Z,3.73
2022-11-22T04:54:52.011Z,3.69
2022-11-22T04:57:21.325Z,3.66
2022-11-22T04:59:49.279Z,3.60
2022-11-22T05:02:17.248Z,3.55
2022-11-22T05:04:50.504Z,3.51
2022-11-22T05:07:18.903Z,3.44
2022-11-22T05:09:46.895Z,3.44
2022-11-22T05:12:14.925Z,3.38
2022-11-22T05:14:44.289Z,3.28
2022-11-22T05:17:13.677Z,3.26
2022-11-22T05:19:44.891Z,3.23
2022-11-22T05:22:16.997Z,3.23
2022-11-22T05:24:43.937Z,3.25
2022-11-22T05:27:11.914Z,3.25
2022-11-22T05:29:39.919Z,3.38
2022-11-22T05:32:09.303Z,3.49
2022-11-22T05:34:37.348Z,3.59
2022-11-22T05:37:05.292Z,3.73
2022-11-22T05:39:33.349Z,3.90
2022-11-22T05:42:01.278Z,4.06
2022-11-22T05:44:29.237Z,4.18
2022-11-22T05:46:57.240Z,4.30
2022-11-22T05:49:26.613Z,4.44
2022-11-22T05:51:54.610Z,4.63
2022-11-22T05:54:22.613Z,4.68
2022-11-22T05:56:50.572Z,4.79
2022-11-22T05:59:18.669Z,4.97
2022-11-22T06:01:46.635Z,5.12
2022-11-22T06:04:14.678Z,5.29
2022-11-22T06:06:44.058Z,5.45
2022-11-22T06:09:12.034Z,5.55
2022-11-22T06:11:39.996Z,5.66
2022-11-22T06:14:09.779Z,5.76
2022-11-22T06:16:37.780Z,5.82
2022-11-22T06:19:05.735Z,5.97
2022-11-22T06:21:33.720Z,6.11
2022-11-22T06:24:03.073Z,6.21
2022-11-22T06:26:34.753Z,6.37
2022-11-22T06:29:06.952Z,6.38
2022-11-22T06:31:34.957Z,6.51
2022-11-22T06:34:03.045Z,6.63
2022-11-22T06:36:31.805Z,6.65
2022-11-22T06:38:59.799Z,6.77
2022-11-22T06:41:29.795Z,6.92
2022-11-22T06:43:57.761Z,6.96
2022-11-22T06:46:26.617Z,7.08
2022-11-22T06:48:54.611Z,7.18
2022-11-22T06:51:23.683Z,7.21
2022-11-22T06:53:51.828Z,7.31
2022-11-22T06:56:20.486Z,7.39
2022-11-22T06:58:50.313Z,7.53
2022-11-22T07:01:19.290Z,7.51
2022-11-22T07:03:47.535Z,7.63
2022-11-22T07:06:16.073Z,7.68
2022-11-22T07:08:44.348Z,7.81
2022-11-22T07:11:13.193Z,7.95
2022-11-22T07:13:41.189Z,7.99
2022-11-22T07:16:11.701Z,8.02
2022-11-22T07:18:39.663Z,8.06
2022-11-22T07:21:12.946Z,8.22
2022-11-22T07:23:41.696Z,8.31
2022-11-22T07:26:09.715Z,8.43
2022-11-22T07:28:37.853Z,8.51
2022-11-22T07:31:06.922Z,8.72
2022-11-22T07:33:36.277Z,8.79
2022-11-22T07:36:07.582Z,8.91
2022-11-22T07:38:35.647Z,9.00
2022-11-22T07:41:03.622Z,9.16
2022-11-22T07:43:31.650Z,9.22
2022-11-22T07:46:00.223Z,9.36
2022-11-22T07:48:28.170Z,9.49
2022-11-22T07:50:57.584Z,9.67
2022-11-22T07:53:26.052Z,9.78
2022-11-22T07:55:53.991Z,9.89
2022-11-22T07:58:21.962Z,9.99
2022-11-22T08:00:50.035Z,10.12
2022-11-22T08:03:19.161Z,10.25
2022-11-22T08:05:48.615Z,10.35
2022-11-22T08:08:17.947Z,10.48
2022-11-22T08:10:46.483Z,10.56
2022-11-22T08:13:14.446Z,10.63
2022-11-22T08:15:42.641Z,10.68
2022-11-22T08:18:10.629Z,10.81
2022-11-22T08:20:38.604Z,10.96
2022-11-22T08:23:06.609Z,11.18
2022-11-22T08:25:35.957Z,11.44
2022-11-22T08:28:03.869Z,11.44
2022-11-22T08:30:31.910Z,11.57
2022-11-22T08:32:59.879Z,11.57
2022-11-22T08:35:27.852Z,11.53
2022-11-22T08:37:58.941Z,11.55
2022-11-22T08:40:26.933Z,11.58
2022-11-22T08:42:57.138Z,11.62
2022-11-22T08:45:25.158Z,11.79
2022-11-22T08:47:53.107Z,11.99
2022-11-22T08:50:21.182Z,12.11
2022-11-22T08:52:49.155Z,12.43
2022-11-22T08:55:17.164Z,13.00
2022-11-22T08:57:45.101Z,13.36
2022-11-22T09:00:15.836Z,13.54
2022-11-22T09:02:43.805Z,13.92
2022-11-22T09:05:11.879Z,14.62
2022-11-22T09:10:28.199Z,14.84
2022-11-22T09:12:56.163Z,14.75
2022-11-22T09:15:25.667Z,14.96
2022-11-22T09:17:53.650Z,15.45
2022-11-22T09:20:21.644Z,15.40
2022-11-22T09:22:49.681Z,16.07
2022-11-22T09:25:17.854Z,16.38
2022-11-22T09:27:45.787Z,16.54
2022-11-22T09:30:14.096Z,16.97
2022-11-22T09:32:44.462Z,17.07
2022-11-22T09:35:12.432Z,17.47
2022-11-22T09:37:40.379Z,17.26
2022-11-22T09:40:09.971Z,17.10
2022-11-22T09:42:48.382Z,16.65
2022-11-22T09:45:48.114Z,16.33
2022-11-22T09:48:24.813Z,16.44
2022-11-22T09:50:56.108Z,16.71
2022-11-22T09:53:26.124Z,16.85
2022-11-22T09:55:54.650Z,17.33
2022-11-22T09:58:27.976Z,17.26
2022-11-22T10:00:57.023Z,16.79
2022-11-22T10:03:28.497Z,16.71
2022-11-22T10:05:57.436Z,16.31
2022-11-22T10:08:33.437Z,16.18
2022-11-22T10:11:01.419Z,15.85
2022-11-22T10:13:32.257Z,15.55
2022-11-22T10:16:03.361Z,15.58
2022-11-22T10:18:38.592Z,15.36
2022-11-22T10:21:08.143Z,15.48
2022-11-22T10:23:36.064Z,15.87
2022-11-22T10:26:05.269Z,16.11
2022-11-22T10:28:35.642Z,16.66
2022-11-22T10:31:07.195Z,17.31
2022-11-22T10:33:44.037Z,17.62
2022-11-22T10:36:25.144Z,17.21
2022-11-22T10:39:09.689Z,16.52
2022-11-22T10:41:44.839Z,15.99
2022-11-22T10:44:19.158Z,16.21
2022-11-22T10:46:56.391Z,16.52
2022-11-22T10:49:30.281Z,16.30
2022-11-22T10:52:00.274Z,16.66
2022-11-22T10:54:29.679Z,17.05
2022-11-22T10:57:00.292Z,17.34
2022-11-22T10:59:37.550Z,17.61
2022-11-22T11:02:17.194Z,17.63
2022-11-22T11:04:46.563Z,17.19
2022-11-22T11:07:16.393Z,17.57
2022-11-22T11:10:10.143Z,17.28
2022-11-22T11:12:40.034Z,16.67
2022-11-22T11:15:15.888Z,16.54
2022-11-22T11:17:43.922Z,16.74
2022-11-22T11:20:17.677Z,16.93
2022-11-22T11:23:13.221Z,17.16
2022-11-22T11:25:34.789Z,16.90
2022-11-22T11:28:06.709Z,16.79
2022-11-22T11:30:41.930Z,16.27
2022-11-22T11:33:21.544Z,15.87
2022-11-22T11:35:51.475Z,15.45
2022-11-22T11:38:33.776Z,15.22
2022-11-22T11:41:17.690Z,14.85
2022-11-22T11:43:45.812Z,14.59
2022-11-22T11:46:17.338Z,14.35
2022-11-22T11:48:45.332Z,14.32
2022-11-22T11:51:17.839Z,14.11
2022-11-22T11:53:52.361Z,13.93
2022-11-22T11:56:31.250Z,13.90
2022-11-22T11:58:59.608Z,13.93
2022-11-22T12:01:27.582Z,14.00
2022-11-22T12:03:56.620Z,13.98
2022-11-22T12:06:28.939Z,14.03
2022-11-22T12:08:57.211Z,14.12
2022-11-22T12:11:27.996Z,14.15
2022-11-22T12:14:19.068Z,14.19
2022-11-22T12:16:46.072Z,14.13
2022-11-22T12:19:24.395Z,13.98
2022-11-22T12:21:57.359Z,13.96
2022-11-22T12:24:48.396Z,13.87
2022-11-22T12:27:14.911Z,13.95
2022-11-22T12:29:43.805Z,14.04
2022-11-22T12:32:15.398Z,14.03
2022-11-22T12:34:47.468Z,13.99
2022-11-22T12:37:18.538Z,13.98
2022-11-22T12:39:48.565Z,14.05
2022-11-22T12:45:11.842Z,14.04
2022-11-22T12:47:41.117Z,14.06
2022-11-22T12:48:22.536Z,13.86
2022-11-22T12:50:11.239Z,14.20
2022-11-22T12:52:41.918Z,14.18
2022-11-22T12:55:13.830Z,14.18
2022-11-22T12:57:44.511Z,14.08
2022-11-22T13:00:15.701Z,14.07
2022-11-22T13:02:46.458Z,14.06
2022-11-22T13:05:16.717Z,14.04
2022-11-22T13:07:51.619Z,14.01
2022-11-22T13:10:25.615Z,13.86
2022-11-22T13:12:53.674Z,13.84
2022-11-22T13:15:27.149Z,13.60
2022-11-22T13:17:55.190Z,13.62
2022-11-22T13:20:24.913Z,13.57
2022-11-22T13:22:59.475Z,13.54
2022-11-22T13:25:36.751Z,13.49
2022-11-22T13:28:07.681Z,13.40
2022-11-22T13:30:35.577Z,13.31
2022-11-22T13:33:03.491Z,13.20
2022-11-22T13:35:32.481Z,13.15
2022-11-22T13:38:03.777Z,13.20
2022-11-22T13:40:32.966Z,13.12
2022-11-22T13:43:42.945Z,13.16
2022-11-22T13:46:52.665Z,13.14
2022-11-22T13:49:36.893Z,13.09
2022-11-22T13:52:28.239Z,13.03
2022-11-22T13:55:02.530Z,12.99
2022-11-22T13:57:35.160Z,12.92
2022-11-22T14:00:48.589Z,12.91
2022-11-22T14:03:34.454Z,12.83
2022-11-22T14:06:02.785Z,12.77
2022-11-22T14:08:34.712Z,12.73
2022-11-22T14:11:22.947Z,12.62
2022-11-22T14:13:53.407Z,12.51
2022-11-22T14:16:36.500Z,12.43
2022-11-22T14:19:10.028Z,12.24
2022-11-22T14:21:56.784Z,12.22
2022-11-22T14:24:31.875Z,12.26
2022-11-22T14:27:06.023Z,12.22
2022-11-22T14:29:54.294Z,12.15
2022-11-22T14:32:22.910Z,12.13
2022-11-22T14:35:16.368Z,12.13
2022-11-22T14:37:47.065Z,12.08
2022-11-22T14:40:28.973Z,12.11
2022-11-22T14:43:00.104Z,12.12
2022-11-22T14:45:30.874Z,12.12
2022-11-22T14:48:04.407Z,12.13
2022-11-22T14:50:34.339Z,12.12
2022-11-22T14:53:07.983Z,12.07
2022-11-22T14:55:36.007Z,12.06
2022-11-22T14:58:07.765Z,11.99
2022-11-22T15:00:43.007Z,11.90
2022-11-22T15:03:42.926Z,11.63
2022-11-22T15:09:16.275Z,11.66
2022-11-22T15:09:45.140Z,11.68
2022-11-22T15:12:28.828Z,11.88
2022-11-22T15:57:34.207Z,12.86
2022-11-22T16:00:02.144Z,12.79
2022-11-22T16:02:32.017Z,12.84
2022-11-22T16:06:08.767Z,12.85
2022-11-22T16:07:50.726Z,12.84
2022-11-22T16:10:20.705Z,12.80
2022-11-22T16:12:48.768Z,12.87
2022-11-22T16:15:28.342Z,12.84
2022-11-22T16:18:01.005Z,12.84
2022-11-22T16:20:32.750Z,12.82
2022-11-22T16:23:21.756Z,12.84
2022-11-22T16:25:50.779Z,12.90
2022-11-22T16:28:32.924Z,12.74
2022-11-22T16:31:02.134Z,12.53
2022-11-22T16:33:30.373Z,12.31
2022-11-22T16:36:00.336Z,12.05
2022-11-22T16:38:28.434Z,11.85
2022-11-22T16:40:58.130Z,11.60
2022-11-22T16:43:26.855Z,11.49
2022-11-22T16:45:54.857Z,11.29
2022-11-22T16:48:31.962Z,11.23
2022-11-22T16:51:04.061Z,11.23
2022-11-22T16:53:38.183Z,11.26
2022-11-22T16:56:06.614Z,11.31
2022-11-22T16:58:34.605Z,11.34
2022-11-22T17:01:02.599Z,11.39
2022-11-22T17:03:32.002Z,11.45
2022-11-22T17:06:01.426Z,11.44
2022-11-22T17:08:29.367Z,11.45
2022-11-22T17:10:57.412Z,11.40
2022-11-22T17:13:26.694Z,11.45
2022-11-22T17:15:54.969Z,11.42
2022-11-22T17:18:23.090Z,11.43
2022-11-22T17:20:51.099Z,11.49
2022-11-22T17:23:22.741Z,11.44
2022-11-22T17:25:50.813Z,11.53
2022-11-22T17:28:18.764Z,11.64
2022-11-22T17:30:46.716Z,11.70
2022-11-22T17:33:14.717Z,11.79
2022-11-22T17:35:42.710Z,11.91
2022-11-22T17:38:11.416Z,12.05
2022-11-22T17:40:40.787Z,12.06
2022-11-22T17:43:08.771Z,12.04
2022-11-22T17:45:42.523Z,12.09
2022-11-22T17:48:10.518Z,12.19
2022-11-22T17:50:38.471Z,12.07
2022-11-22T17:53:06.631Z,12.02
2022-11-22T17:55:48.349Z,11.93
2022-11-22T17:58:23.868Z,12.00
2022-11-22T18:00:52.043Z,11.96
2022-11-22T18:03:20.017Z,11.95
2022-11-22T18:05:48.260Z,11.95
2022-11-22T18:08:16.244Z,11.87
2022-11-22T18:10:44.194Z,11.74
2022-11-22T18:13:27.424Z,11.64
2022-11-22T18:16:02.938Z,11.51
2022-11-22T18:21:19.932Z,11.21
2022-11-22T18:23:47.850Z,11.03
2022-11-22T18:31:53.769Z,10.68
2022-11-22T18:34:22.215Z,10.64
2022-11-22T18:37:05.481Z,10.51
2022-11-22T18:39:35.441Z,10.52
2022-11-22T18:42:03.878Z,10.42
2022-11-22T18:44:31.846Z,10.40
2022-11-22T18:47:01.250Z,10.38
2022-11-22T18:49:29.514Z,10.39
2022-11-22T18:51:57.900Z,10.37
2022-11-22T18:54:25.888Z,10.44
2022-11-22T18:56:53.884Z,10.49
2022-11-22T18:59:22.315Z,10.60
2022-11-22T19:01:50.265Z,10.68
2022-11-22T19:04:19.663Z,10.82
2022-11-22T19:06:47.598Z,10.95
2022-11-22T19:09:15.592Z,11.05
2022-11-22T19:11:43.603Z,11.07
2022-11-22T19:14:11.571Z,11.16
2022-11-22T19:16:39.547Z,11.23
2022-11-22T19:19:08.425Z,11.27
2022-11-22T19:21:37.836Z,11.31
2022-11-22T19:24:06.723Z,11.24
2022-11-22T19:26:34.721Z,11.30
2022-11-22T19:29:04.726Z,11.36
2022-11-22T19:31:32.782Z,11.44
2022-11-22T19:34:00.734Z,11.45
2022-11-22T19:36:33.192Z,11.47
2022-11-22T19:39:03.839Z,11.49
2022-11-22T19:41:32.077Z,11.49
2022-11-22T19:44:00.094Z,11.50
2022-11-22T19:46:28.136Z,11.49
2022-11-22T19:48:57.043Z,11.44
2022-11-22T19:51:25.151Z,11.40
2022-11-22T19:53:54.478Z,11.43
2022-11-22T19:56:26.692Z,11.40
2022-11-22T19:58:55.237Z,11.39
2022-11-22T20:01:24.524Z,11.50
2022-11-22T20:03:53.029Z,11.54
2022-11-22T20:06:21.036Z,11.61
2022-11-22T20:08:48.935Z,11.62
2022-11-22T20:11:17.818Z,11.62
2022-11-22T20:13:47.809Z,11.65
2022-11-22T20:16:16.452Z,11.65
2022-11-22T20:18:44.363Z,11.68
2022-11-22T20:21:12.739Z,11.65
2022-11-22T20:23:42.450Z,11.58
2022-11-22T20:26:11.646Z,11.57
2022-11-22T20:28:39.885Z,11.54
2022-11-22T20:31:10.407Z,11.48
2022-11-22T20:33:39.147Z,11.49
2022-11-22T20:36:08.229Z,11.39
2022-11-22T20:38:36.769Z,11.19
2022-11-22T20:41:05.966Z,11.13
2022-11-22T20:43:34.235Z,11.09
2022-11-22T20:46:02.545Z,11.02
2022-11-22T20:48:31.949Z,11.08
2022-11-22T20:50:59.935Z,10.96
2022-11-22T20:53:28.023Z,10.97
2022-11-22T20:55:56.056Z,10.98
2022-11-22T20:58:24.835Z,11.00
2022-11-22T21:00:52.845Z,11.16
2022-11-22T21:03:20.971Z,11.17
2022-11-22T21:05:53.423Z,11.24
2022-11-22T21:08:21.468Z,11.32
2022-11-22T21:10:49.638Z,11.36
2022-11-22T21:13:17.694Z,11.40
2022-11-22T21:15:45.706Z,11.45
2022-11-22T21:18:29.147Z,11.40
2022-11-22T21:21:04.360Z,11.40
2022-11-22T21:23:32.331Z,11.23
2022-11-22T21:26:00.263Z,11.14
2022-11-22T21:28:28.267Z,11.10
2022-11-22T21:30:57.670Z,10.81
2022-11-22T21:33:25.942Z,10.80
2022-11-22T21:35:54.017Z,10.64
2022-11-22T21:38:28.226Z,10.62
2022-11-22T21:41:17.226Z,10.57
2022-11-22T21:43:50.527Z,10.51
2022-11-22T21:46:20.413Z,10.51
2022-11-22T21:48:49.454Z,10.43
2022-11-22T21:51:17.445Z,10.38
2022-11-22T21:53:46.792Z,10.83
2022-11-22T21:56:14.789Z,10.87
2022-11-22T21:58:42.733Z,11.05
2022-11-22T22:01:14.085Z,11.04
2022-11-22T22:03:42.408Z,11.16
2022-11-22T22:06:10.343Z,11.29
2022-11-22T22:08:38.390Z,11.40
2022-11-22T22:11:07.839Z,11.60
2022-11-22T22:13:36.044Z,11.56
2022-11-22T22:16:06.733Z,11.59
2022-11-22T22:18:35.722Z,11.57
2022-11-22T22:21:03.938Z,11.47
2022-11-22T22:23:31.925Z,11.48
2022-11-22T22:26:01.085Z,11.45
2022-11-22T22:28:31.180Z,11.45
2022-11-22T22:31:06.518Z,11.42
2022-11-22T22:33:34.671Z,11.44
2022-11-22T22:36:02.642Z,11.36
2022-11-22T22:38:30.681Z,11.31
2022-11-22T22:40:59.163Z,11.36
2022-11-22T22:43:29.793Z,11.33
2022-11-22T22:46:06.433Z,11.29
2022-11-22T22:48:34.853Z,11.42
2022-11-22T22:51:06.979Z,11.57
2022-11-22T22:53:34.981Z,11.55
2022-11-22T22:56:03.125Z,11.61
2022-11-22T22:58:31.112Z,11.81
2022-11-22T23:01:07.036Z,11.92
2022-11-22T23:03:35.097Z,12.09
2022-11-22T23:06:06.387Z,12.28
2022-11-22T23:08:34.423Z,12.41
2022-11-22T23:11:06.598Z,12.44
2022-11-22T23:13:35.577Z,12.49
2022-11-22T23:16:03.669Z,12.54
2022-11-22T23:18:35.633Z,12.57
2022-11-22T23:21:04.002Z,12.64
2022-11-22T23:23:32.064Z,12.64
2022-11-22T23:26:02.865Z,12.64
2022-11-22T23:28:30.909Z,12.62
2022-11-22T23:31:05.276Z,12.59
2022-11-22T23:33:34.610Z,12.65
2022-11-22T23:36:04.083Z,12.86
2022-11-22T23:38:32.009Z,12.91
2022-11-22T23:40:59.970Z,13.01
2022-11-22T23:43:28.075Z,12.96
2022-11-22T23:45:56.087Z,13.00
2022-11-22T23:48:24.036Z,13.03
2022-11-22T23:50:53.315Z,13.00
2022-11-22T23:53:21.363Z,13.02
2022-11-22T23:55:49.333Z,12.96
2022-11-22T23:58:17.302Z,12.89
